Time;durP1;ratioP1;P1;durP2;ratioP2;P2;SDS_P1;SDS_P2;PMS_P1;PMS_P2;Temp;Humidity;BMP_temperature;BMP_pressure;BME280_temperature;BME280_humidity;BME280_pressure;Samples;Min_cycle;Max_cycle;Signal;HPM_P1;HPM_P2
2023/04/02 00:01:39;;;;;;;;;;;;;;;10.11;nan;101352.41;5008508;28;20006;-84
2023/04/02 00:04:10;;;;;;;;;;;;;;;10.04;nan;101362.38;5013469;28;19929;-84
2023/04/02 00:06:43;;;;;;;;;;;;;;;10.01;nan;101362.84;4994691;28;20043;-84
2023/04/02 00:09:14;;;;;;;;;;;;;;;10.02;nan;101364.47;5010731;28;20260;-84
2023/04/02 00:11:53;;;;;;;;;;;;;;;10.06;nan;101360.31;5006928;28;19957;-85
2023/04/02 00:14:30;;;;;;;;;;;;;;;10.11;nan;101371.16;5014915;28;19917;-85
2023/04/02 00:16:56;;;;;;;;;;;;;;;10.16;nan;101373.13;5012193;28;20260;-85
2023/04/02 00:19:36;;;;;;;;;;;;;;;10.17;nan;101378.25;5005657;28;19917;-84
2023/04/02 00:22:04;;;;;;;;;;;;;;;10.13;nan;101376.25;5005295;28;20804;-85
2023/04/02 00:24:31;;;;;;;;;;;;;;;10.13;nan;101386.97;5012859;28;19961;-85
2023/04/02 00:26:56;;;;;;;;;;;;;;;10.17;nan;101388.97;5002862;28;19917;-84
2023/04/02 00:29:22;;;;;;;;;;;;;;;10.19;nan;101381.50;5000054;28;19972;-85
2023/04/02 00:31:49;;;;;;;;;;;;;;;10.25;nan;101393.22;5007837;28;19925;-84
2023/04/02 00:34:22;;;;;;;;;;;;;;;10.24;nan;101395.06;5010828;28;20294;-85
2023/04/02 00:36:48;;;;;;;;;;;;;;;10.24;nan;101396.94;5011168;28;19917;-85
2023/04/02 00:39:23;;;;;;;;;;;;;;;10.24;nan;101394.25;5010356;28;19925;-85
2023/04/02 00:41:53;;;;;;;;;;;;;;;10.26;nan;101397.53;5010828;28;19947;-84
2023/04/02 00:44:20;;;;;;;;;;;;;;;10.27;nan;101405.31;5004822;28;19967;-84
2023/04/02 00:46:48;;;;;;;;;;;;;;;10.29;nan;101405.09;5009747;28;19926;-84
2023/04/02 00:49:19;;;;;;;;;;;;;;;10.29;nan;101407.78;4999298;28;19945;-84
2023/04/02 00:51:56;;;;;;;;;;;;;;;10.33;nan;101410.81;5015553;28;19917;-84
2023/04/02 00:54:22;;;;;;;;;;;;;;;10.34;nan;101423.97;5003657;28;20141;-84
2023/04/02 00:56:50;;;;;;;;;;;;;;;10.34;nan;101415.94;4995939;28;19924;-85
2023/04/02 00:59:28;;;;;;;;;;;;;;;10.31;nan;101421.75;5006531;28;19940;-85
2023/04/02 01:02:00;;;;;;;;;;;;;;;10.32;nan;101409.16;5013121;28;19964;-84
2023/04/02 01:04:32;;;;;;;;;;;;;;;10.32;nan;101411.84;5006830;28;20391;-85
2023/04/02 01:06:58;;;;;;;;;;;;;;;10.29;nan;101421.16;5009829;28;19924;-85
2023/04/02 01:09:32;;;;;;;;;;;;;;;10.24;nan;101416.50;5014663;28;19917;-84
2023/04/02 01:11:57;;;;;;;;;;;;;;;10.25;nan;101423.50;5011781;28;19917;-84
2023/04/02 01:14:22;;;;;;;;;;;;;;;10.28;nan;101430.25;5007434;28;19972;-84
2023/04/02 01:17:00;;;;;;;;;;;;;;;10.29;nan;101430.00;5009770;28;19942;-84
2023/04/02 01:19:43;;;;;;;;;;;;;;;10.32;nan;101431.41;5008727;28;19921;-84
2023/04/02 01:22:18;;;;;;;;;;;;;;;10.32;nan;101435.94;5014074;28;19921;-84
2023/04/02 01:24:44;;;;;;;;;;;;;;;10.32;nan;101433.28;5007177;28;19929;-84
2023/04/02 01:27:18;;;;;;;;;;;;;;;10.29;nan;101440.72;5002670;28;20307;-84
2023/04/02 01:29:47;;;;;;;;;;;;;;;10.27;nan;101442.00;5010594;28;20433;-85
2023/04/02 01:32:20;;;;;;;;;;;;;;;10.18;nan;101446.81;5014731;28;19917;-85
2023/04/02 01:34:47;;;;;;;;;;;;;;;10.19;nan;101447.63;5015897;28;19917;-84
2023/04/02 01:37:12;;;;;;;;;;;;;;;10.18;nan;101454.03;5006956;28;19939;-84
2023/04/02 01:39:40;;;;;;;;;;;;;;;10.16;nan;101458.81;5004308;28;19922;-84
2023/04/02 01:42:19;;;;;;;;;;;;;;;10.15;nan;101459.84;5005763;28;19975;-84
2023/04/02 01:44:59;;;;;;;;;;;;;;;10.16;nan;101464.16;5011876;28;19921;-85
2023/04/02 01:47:27;;;;;;;;;;;;;;;10.15;nan;101471.38;5000745;28;20299;-84
2023/04/02 01:49:56;;;;;;;;;;;;;;;10.16;nan;101472.19;5008555;28;19917;-84
2023/04/02 01:52:33;;;;;;;;;;;;;;;10.20;nan;101474.19;5005080;28;20475;-84
2023/04/02 01:54:58;;;;;;;;;;;;;;;10.20;nan;101489.44;5005186;28;20594;-85
2023/04/02 01:57:24;;;;;;;;;;;;;;;10.21;nan;101493.78;5003329;28;19917;-84
2023/04/02 01:59:50;;;;;;;;;;;;;;;10.22;nan;101487.38;5001837;28;19925;-84
2023/04/02 02:02:16;;;;;;;;;;;;;;;10.21;nan;101496.47;5003210;28;20004;-84
2023/04/02 02:04:42;;;;;;;;;;;;;;;10.17;nan;101493.41;5006538;28;19941;-83
2023/04/02 02:07:13;;;;;;;;;;;;;;;10.18;nan;101497.69;5008552;28;19925;-84
2023/04/02 02:09:39;;;;;;;;;;;;;;;10.18;nan;101499.56;5005471;28;20116;-84
2023/04/02 02:12:04;;;;;;;;;;;;;;;10.20;nan;101497.47;5003181;28;19918;-83
2023/04/02 02:14:30;;;;;;;;;;;;;;;10.23;nan;101516.63;5011116;28;19928;-84
2023/04/02 02:16:58;;;;;;;;;;;;;;;10.22;nan;101516.84;5005707;28;20020;-84
2023/04/02 02:19:27;;;;;;;;;;;;;;;10.25;nan;101516.41;4999994;28;20422;-84
2023/04/02 02:21:53;;;;;;;;;;;;;;;10.27;nan;101527.72;5003746;28;19917;-84
2023/04/02 02:24:22;;;;;;;;;;;;;;;10.24;nan;101522.81;5005131;28;19921;-83
2023/04/02 02:26:49;;;;;;;;;;;;;;;10.23;nan;101527.34;5005421;28;20296;-83
2023/04/02 02:29:17;;;;;;;;;;;;;;;10.25;nan;101533.28;5000833;28;19948;-85
2023/04/02 02:31:43;;;;;;;;;;;;;;;10.17;nan;101533.56;5000826;28;19926;-85
2023/04/02 02:34:15;;;;;;;;;;;;;;;10.10;nan;101540.06;5002458;28;20035;-85
2023/04/02 02:36:52;;;;;;;;;;;;;;;10.08;nan;101534.13;5007305;28;19921;-85
2023/04/02 02:39:31;;;;;;;;;;;;;;;10.09;nan;101541.91;5004690;28;20083;-84
2023/04/02 02:42:00;;;;;;;;;;;;;;;10.13;nan;101545.78;5001477;28;19918;-85
2023/04/02 02:44:32;;;;;;;;;;;;;;;10.17;nan;101543.47;4998296;28;20027;-84
2023/04/02 02:47:17;;;;;;;;;;;;;;;10.21;nan;101550.84;5006998;28;19917;-84
2023/04/02 02:49:48;;;;;;;;;;;;;;;10.23;nan;101556.81;5010935;28;19994;-85
2023/04/02 02:52:30;;;;;;;;;;;;;;;10.25;nan;101559.25;5006163;28;19924;-84
2023/04/02 02:55:00;;;;;;;;;;;;;;;10.27;nan;101559.84;4998897;28;20284;-84
2023/04/02 02:57:28;;;;;;;;;;;;;;;10.28;nan;101572.19;4983509;28;20371;-84
2023/04/02 02:59:55;;;;;;;;;;;;;;;10.26;nan;101563.56;5008149;28;19922;-84
2023/04/02 03:02:22;;;;;;;;;;;;;;;10.29;nan;101571.16;5008247;28;20012;-84
2023/04/02 03:04:49;;;;;;;;;;;;;;;10.32;nan;101581.41;5008977;28;20000;-84
2023/04/02 03:07:15;;;;;;;;;;;;;;;10.35;nan;101588.19;5000724;28;19945;-84
2023/04/02 03:09:48;;;;;;;;;;;;;;;10.37;nan;101588.75;5013286;28;19921;-84
2023/04/02 03:12:32;;;;;;;;;;;;;;;10.37;nan;101591.44;4999548;28;21069;-85
2023/04/02 03:15:00;;;;;;;;;;;;;;;10.37;nan;101600.28;5000099;28;19918;-84
2023/04/02 03:17:29;;;;;;;;;;;;;;;10.40;nan;101601.69;4999652;28;19932;-85
2023/04/02 03:20:05;;;;;;;;;;;;;;;10.36;nan;101604.03;5007584;28;19944;-84
2023/04/02 03:22:36;;;;;;;;;;;;;;;10.34;nan;101600.75;5005072;28;19921;-84
2023/04/02 03:25:01;;;;;;;;;;;;;;;10.34;nan;101603.44;5011246;28;19972;-84
2023/04/02 03:27:46;;;;;;;;;;;;;;;10.36;nan;101614.72;4996541;28;20007;-85
2023/04/02 03:30:34;;;;;;;;;;;;;;;10.36;nan;101619.28;5002643;28;20299;-85
2023/04/02 03:33:05;;;;;;;;;;;;;;;10.34;nan;101629.41;4995091;28;20377;-86
2023/04/02 03:35:37;;;;;;;;;;;;;;;10.33;nan;101628.59;5005465;28;20040;-84
2023/04/02 03:38:10;;;;;;;;;;;;;;;10.33;nan;101630.44;5007962;28;19963;-84
2023/04/02 03:40:41;;;;;;;;;;;;;;;10.30;nan;101637.06;5001221;28;20361;-86
2023/04/02 03:43:26;;;;;;;;;;;;;;;10.28;nan;101637.31;5006771;28;19929;-84
2023/04/02 03:45:55;;;;;;;;;;;;;;;10.22;nan;101643.53;5006162;28;19921;-84
2023/04/02 03:48:32;;;;;;;;;;;;;;;10.18;nan;101649.53;5002874;28;19929;-84
2023/04/02 03:51:00;;;;;;;;;;;;;;;10.13;nan;101654.75;5002084;28;20303;-85
2023/04/02 03:53:28;;;;;;;;;;;;;;;10.14;nan;101664.41;5001854;28;20383;-85
2023/04/02 03:55:54;;;;;;;;;;;;;;;10.16;nan;101662.34;5008008;28;19960;-84
2023/04/02 03:58:25;;;;;;;;;;;;;;;10.16;nan;101668.50;5010158;28;19956;-86
2023/04/02 04:00:54;;;;;;;;;;;;;;;10.13;nan;101673.50;4999661;28;19933;-85
2023/04/02 04:03:38;;;;;;;;;;;;;;;10.14;nan;101678.63;4998422;28;20392;-85
2023/04/02 04:06:13;;;;;;;;;;;;;;;10.12;nan;101674.53;5004222;28;19921;-85
2023/04/02 04:08:45;;;;;;;;;;;;;;;10.08;nan;101679.53;5007922;28;19932;-85
2023/04/02 04:11:15;;;;;;;;;;;;;;;10.08;nan;101682.19;5004655;28;19918;-86
2023/04/02 04:13:44;;;;;;;;;;;;;;;10.08;nan;101692.09;5005552;28;20032;-86
2023/04/02 04:16:15;;;;;;;;;;;;;;;10.08;nan;101687.56;5012358;28;19927;-85
2023/04/02 04:19:03;;;;;;;;;;;;;;;10.11;nan;101699.69;5007397;28;19929;-85
2023/04/02 04:21:28;;;;;;;;;;;;;;;10.12;nan;101706.66;5000046;28;19926;-85
2023/04/02 04:23:54;;;;;;;;;;;;;;;10.11;nan;101705.03;5008553;28;20402;-86
2023/04/02 04:26:29;;;;;;;;;;;;;;;10.07;nan;101714.56;5005814;28;21023;-85
2023/04/02 04:29:13;;;;;;;;;;;;;;;10.08;nan;101713.50;5005510;28;19956;-85
2023/04/02 04:31:49;;;;;;;;;;;;;;;10.07;nan;101717.22;5005569;28;20379;-85
2023/04/02 04:34:21;;;;;;;;;;;;;;;10.06;nan;101723.63;5000585;28;19922;-86
2023/04/02 04:36:53;;;;;;;;;;;;;;;10.04;nan;101728.34;4992817;28;20358;-85
2023/04/02 04:39:37;;;;;;;;;;;;;;;10.03;nan;101727.53;5002888;28;19937;-84
2023/04/02 04:42:04;;;;;;;;;;;;;;;10.00;nan;101730.66;5000611;28;19921;-86
2023/04/02 04:44:29;;;;;;;;;;;;;;;9.94;nan;101737.72;4997643;28;20392;-86
2023/04/02 04:47:02;;;;;;;;;;;;;;;9.93;nan;101741.44;5004422;28;19968;-85
2023/04/02 04:49:39;;;;;;;;;;;;;;;9.91;nan;101750.75;5014555;28;19921;-85
2023/04/02 04:52:13;;;;;;;;;;;;;;;9.89;nan;101753.63;5009698;28;20376;-86
2023/04/02 04:54:38;;;;;;;;;;;;;;;9.88;nan;101759.22;5006212;28;20449;-85
2023/04/02 04:57:04;;;;;;;;;;;;;;;9.87;nan;101769.06;5004216;28;19925;-84
2023/04/02 04:59:30;;;;;;;;;;;;;;;9.87;nan;101771.75;5005256;28;19922;-86
2023/04/02 05:01:59;;;;;;;;;;;;;;;9.89;nan;101775.03;5005326;28;19933;-85
2023/04/02 05:04:34;;;;;;;;;;;;;;;9.93;nan;101770.06;5007340;28;19928;-85
2023/04/02 05:07:04;;;;;;;;;;;;;;;9.92;nan;101779.97;5004740;28;20370;-85
2023/04/02 05:09:41;;;;;;;;;;;;;;;9.94;nan;101785.91;5008072;28;19921;-83
2023/04/02 05:12:17;;;;;;;;;;;;;;;9.94;nan;101783.22;5002215;28;20823;-86
2023/04/02 05:14:50;;;;;;;;;;;;;;;9.95;nan;101789.41;5006687;28;20059;-84
2023/04/02 05:17:22;;;;;;;;;;;;;;;9.94;nan;101791.25;5007264;28;19925;-83
2023/04/02 05:19:55;;;;;;;;;;;;;;;9.96;nan;101802.56;5000230;28;19925;-84
2023/04/02 05:22:24;;;;;;;;;;;;;;;9.99;nan;101799.44;4991806;28;19926;-85
2023/04/02 05:24:58;;;;;;;;;;;;;;;10.02;nan;101802.72;5007760;28;19925;-85
2023/04/02 05:27:43;;;;;;;;;;;;;;;10.03;nan;101799.84;5007783;28;19964;-86
2023/04/02 05:30:24;;;;;;;;;;;;;;;10.09;nan;101814.22;5002498;28;20034;-85
2023/04/02 05:33:06;;;;;;;;;;;;;;;10.14;nan;101812.53;5012392;28;20246;-85
2023/04/02 05:35:34;;;;;;;;;;;;;;;10.20;nan;101810.81;5010124;28;19921;-84
2023/04/02 05:38:03;;;;;;;;;;;;;;;10.27;nan;101819.66;5010853;28;20032;-85
2023/04/02 05:40:33;;;;;;;;;;;;;;;10.34;nan;101823.09;5005189;28;20342;-84
2023/04/02 05:43:02;;;;;;;;;;;;;;;10.37;nan;101822.66;5009321;28;19917;-84
2023/04/02 05:45:30;;;;;;;;;;;;;;;10.44;nan;101827.97;5007093;28;19921;-86
2023/04/02 05:48:00;;;;;;;;;;;;;;;10.50;nan;101837.78;5011342;28;19925;-86
2023/04/02 05:50:39;;;;;;;;;;;;;;;10.56;nan;101842.25;5003948;28;20391;-85
2023/04/02 05:53:11;;;;;;;;;;;;;;;10.63;nan;101845.69;5007417;28;20073;-84
2023/04/02 05:55:40;;;;;;;;;;;;;;;10.70;nan;101849.13;5006670;28;20295;-85
2023/04/02 05:58:13;;;;;;;;;;;;;;;10.80;nan;101849.44;5009953;28;20418;-86
2023/04/02 06:00:38;;;;;;;;;;;;;;;10.91;nan;101866.63;5013622;28;19928;-86
2023/04/02 06:03:22;;;;;;;;;;;;;;;11.03;nan;101859.50;5003431;28;20186;-85
2023/04/02 06:05:50;;;;;;;;;;;;;;;11.14;nan;101861.44;5004606;28;19921;-85
2023/04/02 06:08:18;;;;;;;;;;;;;;;11.27;nan;101875.72;5005266;28;19917;-84
2023/04/02 06:10:57;;;;;;;;;;;;;;;11.37;nan;101874.16;5007745;28;19929;-85
2023/04/02 06:13:22;;;;;;;;;;;;;;;11.42;nan;101878.84;5000847;28;20055;-84
2023/04/02 06:15:48;;;;;;;;;;;;;;;11.43;nan;101883.16;5002354;28;20017;-85
2023/04/02 06:18:19;;;;;;;;;;;;;;;11.39;nan;101890.84;5001250;28;19917;-85
2023/04/02 06:20:45;;;;;;;;;;;;;;;11.46;nan;101890.75;5011897;28;20019;-85
2023/04/02 06:23:29;;;;;;;;;;;;;;;11.51;nan;101888.22;5004681;28;20028;-83
2023/04/02 06:26:10;;;;;;;;;;;;;;;11.45;nan;101900.66;5002448;28;20199;-84
2023/04/02 06:28:38;;;;;;;;;;;;;;;11.55;nan;101893.97;5013717;28;19932;-86
2023/04/02 06:31:06;;;;;;;;;;;;;;;11.59;nan;101901.31;5013614;28;20016;-85
2023/04/02 06:33:32;;;;;;;;;;;;;;;11.59;nan;101903.19;5003374;28;19917;-84
2023/04/02 06:35:58;;;;;;;;;;;;;;;11.53;nan;101914.84;5000832;28;20395;-84
2023/04/02 06:38:25;;;;;;;;;;;;;;;11.47;nan;101919.22;5001983;28;19917;-84
2023/04/02 06:40:53;;;;;;;;;;;;;;;11.53;nan;101929.06;5008822;28;20290;-83
2023/04/02 06:43:32;;;;;;;;;;;;;;;11.63;nan;101931.22;5007807;28;19932;-85
2023/04/02 06:45:59;;;;;;;;;;;;;;;11.68;nan;101942.13;5003426;28;19921;-85
2023/04/02 06:48:24;;;;;;;;;;;;;;;11.74;nan;101936.66;4999214;28;19929;-86
2023/04/02 06:50:53;;;;;;;;;;;;;;;11.78;nan;101943.22;5001422;28;21148;-84
2023/04/02 06:53:26;;;;;;;;;;;;;;;11.76;nan;101939.91;5002884;28;19924;-83
2023/04/02 06:56:12;;;;;;;;;;;;;;;11.77;nan;101952.31;5003619;28;19925;-84
2023/04/02 06:58:37;;;;;;;;;;;;;;;11.71;nan;101953.22;4998654;28;19929;-84
2023/04/02 07:01:03;;;;;;;;;;;;;;;11.71;nan;101958.59;5003698;28;19925;-85
2023/04/02 07:03:29;;;;;;;;;;;;;;;11.72;nan;101962.91;5006693;28;19928;-85
2023/04/02 07:05:55;;;;;;;;;;;;;;;11.78;nan;101970.06;5010026;28;19917;-85
2023/04/02 07:08:20;;;;;;;;;;;;;;;11.84;nan;101978.25;5005310;28;19921;-85
2023/04/02 07:10:46;;;;;;;;;;;;;;;11.82;nan;101983.03;5006047;28;19948;-84
2023/04/02 07:13:15;;;;;;;;;;;;;;;11.80;nan;101983.28;5004415;28;19921;-85
2023/04/02 07:15:41;;;;;;;;;;;;;;;11.78;nan;101985.34;4983344;28;19922;-85
2023/04/02 07:18:08;;;;;;;;;;;;;;;11.78;nan;101986.19;4996976;28;20305;-84
2023/04/02 07:20:37;;;;;;;;;;;;;;;11.79;nan;101987.81;5000335;28;20826;-84
2023/04/02 07:23:02;;;;;;;;;;;;;;;11.87;nan;101993.94;5003042;28;19925;-83
2023/04/02 07:25:28;;;;;;;;;;;;;;;11.93;nan;101995.72;4999382;28;20545;-84
2023/04/02 07:27:54;;;;;;;;;;;;;;;11.93;nan;101998.41;5001043;28;19992;-84
2023/04/02 07:30:19;;;;;;;;;;;;;;;11.93;nan;101995.72;4998206;28;20510;-85
2023/04/02 07:32:45;;;;;;;;;;;;;;;11.91;nan;102005.88;5000232;28;20023;-83
2023/04/02 07:35:11;;;;;;;;;;;;;;;11.87;nan;102016.25;5002571;28;19971;-84
2023/04/02 07:37:37;;;;;;;;;;;;;;;11.84;nan;102018.53;5007061;28;19926;-86
2023/04/02 07:40:04;;;;;;;;;;;;;;;11.82;nan;102020.63;5001499;28;20041;-84
2023/04/02 07:42:30;;;;;;;;;;;;;;;11.87;nan;102020.81;5000764;28;19917;-85
2023/04/02 07:44:55;;;;;;;;;;;;;;;11.98;nan;102020.03;5000728;28;19929;-84
2023/04/02 07:47:21;;;;;;;;;;;;;;;12.20;nan;102021.16;5004526;28;20204;-83
2023/04/02 07:49:46;;;;;;;;;;;;;;;12.39;nan;102028.16;5004615;28;20012;-83
2023/04/02 07:52:11;;;;;;;;;;;;;;;12.54;nan;102027.72;4999329;28;19917;-85
2023/04/02 07:54:37;;;;;;;;;;;;;;;12.61;nan;102035.69;5001801;28;19926;-84
2023/04/02 07:57:02;;;;;;;;;;;;;;;12.58;nan;102039.69;5002953;28;20286;-85
2023/04/02 07:59:27;;;;;;;;;;;;;;;12.65;nan;102039.56;5002977;28;20027;-83
2023/04/02 08:01:53;;;;;;;;;;;;;;;12.77;nan;102042.28;5002450;28;20146;-84
2023/04/02 08:04:21;;;;;;;;;;;;;;;12.87;nan;102047.91;5004511;28;19921;-83
2023/04/02 08:06:47;;;;;;;;;;;;;;;12.97;nan;102050.84;5005548;28;19953;-83
2023/04/02 08:09:13;;;;;;;;;;;;;;;13.04;nan;102059.63;5000017;28;20276;-85
2023/04/02 08:11:40;;;;;;;;;;;;;;;13.06;nan;102060.22;5001817;28;19929;-84
2023/04/02 08:14:11;;;;;;;;;;;;;;;13.11;nan;102059.53;5008171;28;19925;-83
2023/04/02 08:16:48;;;;;;;;;;;;;;;13.14;nan;102053.69;4986680;28;20004;-84
2023/04/02 08:19:14;;;;;;;;;;;;;;;13.17;nan;102063.97;5004201;28;19928;-83
2023/04/02 08:21:40;;;;;;;;;;;;;;;13.25;nan;102061.78;5005902;28;19921;-84
2023/04/02 08:24:05;;;;;;;;;;;;;;;13.33;nan;102074.06;5008214;28;20355;-84
2023/04/02 08:26:30;;;;;;;;;;;;;;;13.37;nan;102075.25;5008569;28;20016;-83
2023/04/02 08:28:56;;;;;;;;;;;;;;;13.32;nan;102077.81;5017804;28;20591;-82
2023/04/02 08:31:22;;;;;;;;;;;;;;;13.30;nan;102074.56;5011111;28;19917;-83
2023/04/02 08:33:47;;;;;;;;;;;;;;;13.31;nan;102076.19;5004589;28;20044;-82
2023/04/02 08:36:15;;;;;;;;;;;;;;;13.30;nan;102080.75;5011233;28;20339;-83
2023/04/02 08:38:40;;;;;;;;;;;;;;;13.31;nan;102084.25;5007193;28;20291;-83
2023/04/02 08:41:06;;;;;;;;;;;;;;;13.31;nan;102084.25;5004613;28;19932;-83
2023/04/02 08:43:36;;;;;;;;;;;;;;;13.26;nan;102076.88;5007482;28;19980;-83
2023/04/02 08:46:08;;;;;;;;;;;;;;;13.25;nan;102093.25;5009815;28;20184;-83
2023/04/02 08:48:35;;;;;;;;;;;;;;;13.21;nan;102092.09;5010208;28;19929;-83
2023/04/02 08:51:01;;;;;;;;;;;;;;;13.25;nan;102095.94;5011352;28;19968;-84
2023/04/02 08:53:38;;;;;;;;;;;;;;;13.30;nan;102096.91;5005927;28;19928;-82
2023/04/02 08:56:19;;;;;;;;;;;;;;;13.28;nan;102096.31;5009573;28;19917;-84
2023/04/02 08:58:44;;;;;;;;;;;;;;;13.26;nan;102105.66;4989233;28;19953;-83
2023/04/02 09:01:24;;;;;;;;;;;;;;;13.26;nan;102102.97;5011482;28;19956;-83
2023/04/02 09:03:52;;;;;;;;;;;;;;;13.27;nan;102115.38;5006429;28;20360;-83
2023/04/02 09:06:19;;;;;;;;;;;;;;;13.37;nan;102112.94;5003841;28;20057;-83
2023/04/02 09:08:46;;;;;;;;;;;;;;;13.42;nan;102121.13;4988790;28;20344;-84
2023/04/02 09:11:22;;;;;;;;;;;;;;;13.34;nan;102129.56;5010531;28;19929;-82
2023/04/02 09:13:59;;;;;;;;;;;;;;;13.38;nan;102129.91;5006751;28;20046;-83
2023/04/02 09:16:44;;;;;;;;;;;;;;;13.43;nan;102138.91;5005661;28;20001;-82
2023/04/02 09:19:13;;;;;;;;;;;;;;;13.45;nan;102135.97;5005633;28;20398;-85
2023/04/02 09:21:44;;;;;;;;;;;;;;;13.47;nan;102141.97;5009295;28;19964;-84
2023/04/02 09:24:13;;;;;;;;;;;;;;;13.50;nan;102142.31;5004958;28;20234;-83
2023/04/02 09:26:38;;;;;;;;;;;;;;;13.48;nan;102149.81;5005137;28;20090;-82
2023/04/02 09:29:18;;;;;;;;;;;;;;;13.46;nan;102154.59;5009649;28;19922;-83
2023/04/02 09:31:50;;;;;;;;;;;;;;;13.59;nan;102159.75;5011407;28;19925;-83
2023/04/02 09:34:27;;;;;;;;;;;;;;;13.91;nan;102143.25;5007402;28;20307;-84
2023/04/02 09:36:52;;;;;;;;;;;;;;;14.21;nan;102154.69;5005078;28;19917;-83
2023/04/02 09:39:19;;;;;;;;;;;;;;;14.43;nan;102146.78;5008588;28;20275;-82
2023/04/02 09:41:44;;;;;;;;;;;;;;;14.49;nan;102164.69;5008160;28;19925;-83
2023/04/02 09:44:12;;;;;;;;;;;;;;;14.43;nan;102159.44;5010585;28;19921;-84
2023/04/02 09:46:45;;;;;;;;;;;;;;;14.39;nan;102166.34;5003770;28;19926;-84
2023/04/02 09:49:11;;;;;;;;;;;;;;;14.39;nan;102164.47;4990558;28;19917;-83
2023/04/02 09:51:37;;;;;;;;;;;;;;;14.37;nan;102160.38;4999025;28;20384;-83
2023/04/02 09:54:02;;;;;;;;;;;;;;;14.44;nan;102169.19;5015842;28;20009;-84
2023/04/02 09:56:30;;;;;;;;;;;;;;;14.54;nan;102169.38;5010587;28;19917;-84
2023/04/02 09:59:01;;;;;;;;;;;;;;;14.62;nan;102177.09;5012278;28;19986;-84
2023/04/02 10:01:28;;;;;;;;;;;;;;;14.66;nan;102169.34;5008949;28;19925;-84
2023/04/02 10:03:53;;;;;;;;;;;;;;;14.64;nan;102180.38;5014812;28;19921;-83
2023/04/02 10:06:19;;;;;;;;;;;;;;;14.58;nan;102178.63;5008150;28;20283;-84
2023/04/02 10:08:45;;;;;;;;;;;;;;;14.58;nan;102183.22;5005771;28;19928;-83
2023/04/02 10:11:16;;;;;;;;;;;;;;;14.55;nan;102197.19;5007378;28;20008;-83
2023/04/02 10:14:02;;;;;;;;;;;;;;;14.51;nan;102188.72;5012767;28;20355;-84
2023/04/02 10:16:32;;;;;;;;;;;;;;;14.59;nan;102187.56;5010814;28;20376;-83
2023/04/02 10:19:01;;;;;;;;;;;;;;;14.67;nan;102193.38;5010946;28;19925;-84
2023/04/02 10:21:37;;;;;;;;;;;;;;;14.76;nan;102197.34;5009162;28;20403;-83
2023/04/02 10:24:09;;;;;;;;;;;;;;;14.85;nan;102199.63;5008256;28;20186;-83
2023/04/02 10:26:42;;;;;;;;;;;;;;;14.98;nan;102189.38;5006187;28;20006;-83
2023/04/02 10:29:13;;;;;;;;;;;;;;;15.07;nan;102198.69;5004217;28;19921;-83
2023/04/02 10:31:48;;;;;;;;;;;;;;;15.13;nan;102193.41;5007686;28;19921;-83
2023/04/02 10:34:24;;;;;;;;;;;;;;;15.19;nan;102195.94;5009416;28;19918;-84
2023/04/02 10:36:53;;;;;;;;;;;;;;;15.28;nan;102199.91;5005015;28;19922;-83
2023/04/02 10:39:22;;;;;;;;;;;;;;;15.53;nan;102214.88;5005645;28;19925;-84
2023/04/02 10:41:56;;;;;;;;;;;;;;;15.69;nan;102203.28;4999405;28;19918;-83
2023/04/02 10:44:24;;;;;;;;;;;;;;;15.84;nan;102198.13;5013025;28;20307;-82
2023/04/02 10:46:53;;;;;;;;;;;;;;;15.88;nan;102207.38;5009188;28;19960;-84
2023/04/02 10:49:30;;;;;;;;;;;;;;;15.90;nan;102216.03;5008369;28;20294;-83
2023/04/02 10:52:04;;;;;;;;;;;;;;;15.91;nan;102224.97;4997793;28;20408;-84
2023/04/02 10:54:33;;;;;;;;;;;;;;;15.99;nan;102217.28;5002632;28;19963;-84
2023/04/02 10:57:12;;;;;;;;;;;;;;;16.21;nan;102225.41;5004520;28;19980;-84
2023/04/02 10:59:40;;;;;;;;;;;;;;;16.27;nan;102216.28;5006952;28;20024;-84
2023/04/02 11:02:24;;;;;;;;;;;;;;;16.36;nan;102229.41;5002937;28;19926;-83
2023/04/02 11:04:52;;;;;;;;;;;;;;;16.45;nan;102225.16;5006667;28;19980;-83
2023/04/02 11:07:19;;;;;;;;;;;;;;;16.57;nan;102234.81;5004297;28;19994;-84
2023/04/02 11:09:47;;;;;;;;;;;;;;;16.71;nan;102245.28;5006886;28;20379;-83
2023/04/02 11:12:31;;;;;;;;;;;;;;;16.87;nan;102238.94;5002504;28;20276;-84
2023/04/02 11:14:57;;;;;;;;;;;;;;;16.93;nan;102243.38;5004979;28;19921;-83
2023/04/02 11:17:23;;;;;;;;;;;;;;;17.02;nan;102241.81;5001153;28;20286;-84
2023/04/02 11:19:48;;;;;;;;;;;;;;;17.07;nan;102247.31;5003030;28;19952;-83
2023/04/02 11:22:15;;;;;;;;;;;;;;;16.94;nan;102263.97;5003864;28;20268;-83
2023/04/02 11:24:44;;;;;;;;;;;;;;;16.76;nan;102264.28;5002526;28;20447;-84
2023/04/02 11:27:10;;;;;;;;;;;;;;;16.53;nan;102274.25;5007960;28;19983;-83
2023/04/02 11:29:38;;;;;;;;;;;;;;;16.45;nan;102266.56;5011781;28;20391;-84
2023/04/02 11:32:12;;;;;;;;;;;;;;;16.49;nan;102270.41;5008482;28;20811;-83
2023/04/02 11:34:41;;;;;;;;;;;;;;;16.55;nan;102274.84;5006628;28;19936;-82
2023/04/02 11:37:09;;;;;;;;;;;;;;;16.69;nan;102264.47;5001668;28;20060;-82
2023/04/02 11:39:55;;;;;;;;;;;;;;;16.91;nan;102268.00;5002348;28;20421;-83
2023/04/02 11:42:23;;;;;;;;;;;;;;;16.99;nan;102264.00;5006574;28;19972;-83
2023/04/02 11:44:49;;;;;;;;;;;;;;;17.06;nan;102269.25;5005891;28;19932;-83
2023/04/02 11:47:21;;;;;;;;;;;;;;;17.12;nan;102268.22;5002499;28;19921;-83
2023/04/02 11:50:02;;;;;;;;;;;;;;;17.16;nan;102280.97;5003310;28;19917;-83
2023/04/02 11:52:31;;;;;;;;;;;;;;;16.99;nan;102288.38;5013983;28;19917;-82
2023/04/02 11:54:58;;;;;;;;;;;;;;;16.83;nan;102294.69;5010975;28;20382;-83
2023/04/02 11:57:23;;;;;;;;;;;;;;;16.67;nan;102298.25;5004753;28;19979;-83
2023/04/02 11:59:52;;;;;;;;;;;;;;;16.61;nan;102294.66;5004023;28;20413;-83
2023/04/02 12:02:40;;;;;;;;;;;;;;;16.73;nan;102305.41;5009713;28;19924;-82
2023/04/02 12:05:16;;;;;;;;;;;;;;;16.93;nan;102302.94;5005292;28;19925;-82
2023/04/02 12:07:56;;;;;;;;;;;;;;;17.05;nan;102300.06;5008361;28;19929;-84
2023/04/02 12:10:26;;;;;;;;;;;;;;;17.18;nan;102294.25;5003158;28;19937;-83
2023/04/02 12:12:51;;;;;;;;;;;;;;;17.34;nan;102315.03;5008888;28;19957;-82
2023/04/02 12:15:23;;;;;;;;;;;;;;;17.38;nan;102318.84;5006979;28;19960;-81
2023/04/02 12:17:49;;;;;;;;;;;;;;;17.26;nan;102317.38;5006388;28;19928;-82
2023/04/02 12:20:22;;;;;;;;;;;;;;;17.02;nan;102317.66;5007691;28;19925;-83
2023/04/02 12:22:49;;;;;;;;;;;;;;;17.05;nan;102321.72;5001398;28;19967;-83
2023/04/02 12:25:28;;;;;;;;;;;;;;;17.10;nan;102335.34;5006555;28;19932;-83
2023/04/02 12:28:03;;;;;;;;;;;;;;;17.31;nan;102333.69;5007280;28;20284;-84
2023/04/02 12:30:29;;;;;;;;;;;;;;;17.53;nan;102331.75;5003814;28;19921;-83
2023/04/02 12:32:55;;;;;;;;;;;;;;;17.55;nan;102343.16;5007231;28;19925;-84
2023/04/02 12:35:32;;;;;;;;;;;;;;;17.52;nan;102339.06;5006890;28;20461;-83
2023/04/02 12:37:57;;;;;;;;;;;;;;;17.59;nan;102338.84;5004275;28;19933;-83
2023/04/02 12:40:23;;;;;;;;;;;;;;;17.73;nan;102339.28;5007763;28;19917;-82
2023/04/02 12:42:48;;;;;;;;;;;;;;;17.90;nan;102345.41;5006186;28;20019;-82
2023/04/02 12:45:21;;;;;;;;;;;;;;;17.91;nan;102351.63;5004514;28;19925;-84
2023/04/02 12:47:47;;;;;;;;;;;;;;;17.87;nan;102345.09;5009095;28;19917;-82
2023/04/02 12:50:14;;;;;;;;;;;;;;;17.84;nan;102356.47;5006635;28;19920;-83
2023/04/02 12:52:44;;;;;;;;;;;;;;;17.85;nan;102349.97;5006923;28;19922;-83
2023/04/02 12:55:27;;;;;;;;;;;;;;;17.94;nan;102351.13;5008397;28;19965;-82
2023/04/02 12:57:56;;;;;;;;;;;;;;;18.07;nan;102351.50;5002540;28;19917;-83
2023/04/02 13:00:23;;;;;;;;;;;;;;;18.17;nan;102360.81;5004842;28;19917;-83
2023/04/02 13:02:50;;;;;;;;;;;;;;;18.14;nan;102361.34;5007158;28;19917;-82
2023/04/02 13:05:36;;;;;;;;;;;;;;;17.97;nan;102373.13;4995574;28;19926;-82
2023/04/02 13:08:02;;;;;;;;;;;;;;;17.78;nan;102375.41;5009709;28;20088;-82
2023/04/02 13:10:28;;;;;;;;;;;;;;;17.68;nan;102383.44;5007673;28;20362;-82
2023/04/02 13:12:55;;;;;;;;;;;;;;;17.72;nan;102386.44;5014347;28;20279;-83
2023/04/02 13:15:22;;;;;;;;;;;;;;;17.85;nan;102380.59;5015342;28;20019;-83